sensor_id;sensor_type;location;lat;lon;timestamp;P1;durP1;ratioP1;P2;durP2;ratioP2
46767;SDS011;69007;48.978;18.066;2023-08-06T00:01:37;8.25;;;7.28;;
46767;SDS011;69007;48.978;18.066;2023-08-06T00:04:02;8.48;;;6.97;;
46767;SDS011;69007;48.978;18.066;2023-08-06T00:06:28;10.27;;;7.53;;
46767;SDS011;69007;48.978;18.066;2023-08-06T00:08:53;7.38;;;6.10;;
46767;SDS011;69007;48.978;18.066;2023-08-06T00:11:19;10.70;;;6.75;;
46767;SDS011;69007;48.978;18.066;2023-08-06T00:13:45;10.75;;;7.10;;
46767;SDS011;69007;48.978;18.066;2023-08-06T00:16:10;10.73;;;7.35;;
46767;SDS011;69007;48.978;18.066;2023-08-06T00:18:37;7.45;;;6.70;;
46767;SDS011;69007;48.978;18.066;2023-08-06T00:21:03;10.75;;;8.13;;
46767;SDS011;69007;48.978;18.066;2023-08-06T00:23:29;10.75;;;7.60;;
46767;SDS011;69007;48.978;18.066;2023-08-06T00:25:54;10.65;;;7.55;;
46767;SDS011;69007;48.978;18.066;2023-08-06T00:28:19;11.63;;;7.78;;
46767;SDS011;69007;48.978;18.066;2023-08-06T00:30:45;13.57;;;7.75;;
46767;SDS011;69007;48.978;18.066;2023-08-06T00:33:10;9.23;;;7.57;;
46767;SDS011;69007;48.978;18.066;2023-08-06T00:35:35;10.30;;;8.18;;
46767;SDS011;69007;48.978;18.066;2023-08-06T00:38:01;10.10;;;6.88;;
46767;SDS011;69007;48.978;18.066;2023-08-06T00:40:26;13.77;;;7.63;;
46767;SDS011;69007;48.978;18.066;2023-08-06T00:42:53;9.55;;;8.05;;
46767;SDS011;69007;48.978;18.066;2023-08-06T00:45:19;9.18;;;7.13;;
46767;SDS011;69007;48.978;18.066;2023-08-06T00:47:44;9.45;;;7.40;;
46767;SDS011;69007;48.978;18.066;2023-08-06T00:50:10;7.72;;;7.00;;
46767;SDS011;69007;48.978;18.066;2023-08-06T00:52:36;9.32;;;7.20;;
46767;SDS011;69007;48.978;18.066;2023-08-06T00:55:02;7.85;;;7.05;;
46767;SDS011;69007;48.978;18.066;2023-08-06T00:57:28;9.32;;;7.13;;
46767;SDS011;69007;48.978;18.066;2023-08-06T00:59:54;10.30;;;7.70;;
46767;SDS011;69007;48.978;18.066;2023-08-06T01:02:20;9.55;;;7.30;;
46767;SDS011;69007;48.978;18.066;2023-08-06T01:04:45;8.55;;;6.60;;
46767;SDS011;69007;48.978;18.066;2023-08-06T01:09:57;9.43;;;7.30;;
46767;SDS011;69007;48.978;18.066;2023-08-06T01:12:29;8.02;;;6.75;;
46767;SDS011;69007;48.978;18.066;2023-08-06T01:17:32;8.10;;;6.97;;
46767;SDS011;69007;48.978;18.066;2023-08-06T01:19:59;8.20;;;7.40;;
46767;SDS011;69007;48.978;18.066;2023-08-06T01:22:24;7.60;;;6.80;;
46767;SDS011;69007;48.978;18.066;2023-08-06T01:24:50;7.95;;;6.53;;
46767;SDS011;69007;48.978;18.066;2023-08-06T01:27:28;7.85;;;7.05;;
46767;SDS011;69007;48.978;18.066;2023-08-06T01:30:02;10.05;;;7.22;;
46767;SDS011;69007;48.978;18.066;2023-08-06T01:32:34;10.38;;;6.43;;
46767;SDS011;69007;48.978;18.066;2023-08-06T01:35:00;8.27;;;7.40;;
46767;SDS011;69007;48.978;18.066;2023-08-06T01:37:28;10.45;;;7.43;;
46767;SDS011;69007;48.978;18.066;2023-08-06T01:39:54;8.48;;;7.00;;
46767;SDS011;69007;48.978;18.066;2023-08-06T01:42:19;8.77;;;7.18;;
46767;SDS011;69007;48.978;18.066;2023-08-06T01:44:45;8.13;;;6.97;;
46767;SDS011;69007;48.978;18.066;2023-08-06T01:47:10;11.57;;;6.95;;
46767;SDS011;69007;48.978;18.066;2023-08-06T01:49:36;9.77;;;7.10;;
46767;SDS011;69007;48.978;18.066;2023-08-06T01:52:01;8.27;;;6.70;;
46767;SDS011;69007;48.978;18.066;2023-08-06T01:54:26;8.98;;;6.65;;
46767;SDS011;69007;48.978;18.066;2023-08-06T01:56:52;10.02;;;6.82;;
46767;SDS011;69007;48.978;18.066;2023-08-06T01:59:18;8.27;;;6.70;;
46767;SDS011;69007;48.978;18.066;2023-08-06T02:01:43;10.07;;;6.32;;
46767;SDS011;69007;48.978;18.066;2023-08-06T02:04:08;11.95;;;7.60;;
46767;SDS011;69007;48.978;18.066;2023-08-06T02:06:34;14.38;;;8.85;;
46767;SDS011;69007;48.978;18.066;2023-08-06T02:08:59;10.63;;;7.00;;
46767;SDS011;69007;48.978;18.066;2023-08-06T02:11:24;10.43;;;7.03;;
46767;SDS011;69007;48.978;18.066;2023-08-06T02:13:50;7.60;;;6.75;;
46767;SDS011;69007;48.978;18.066;2023-08-06T02:16:15;11.07;;;6.88;;
46767;SDS011;69007;48.978;18.066;2023-08-06T02:18:40;11.38;;;7.15;;
46767;SDS011;69007;48.978;18.066;2023-08-06T02:21:06;9.68;;;6.97;;
46767;SDS011;69007;48.978;18.066;2023-08-06T02:23:31;9.05;;;7.03;;
46767;SDS011;69007;48.978;18.066;2023-08-06T02:26:04;11.05;;;7.15;;
46767;SDS011;69007;48.978;18.066;2023-08-06T02:28:30;11.15;;;6.90;;
46767;SDS011;69007;48.978;18.066;2023-08-06T02:30:56;13.57;;;7.50;;
46767;SDS011;69007;48.978;18.066;2023-08-06T02:33:22;10.63;;;7.03;;
46767;SDS011;69007;48.978;18.066;2023-08-06T02:35:47;9.65;;;7.80;;
46767;SDS011;69007;48.978;18.066;2023-08-06T02:38:12;9.35;;;6.95;;
46767;SDS011;69007;48.978;18.066;2023-08-06T02:40:44;10.90;;;7.20;;
46767;SDS011;69007;48.978;18.066;2023-08-06T02:43:13;11.85;;;6.82;;
46767;SDS011;69007;48.978;18.066;2023-08-06T02:45:38;7.63;;;6.40;;
46767;SDS011;69007;48.978;18.066;2023-08-06T02:48:04;9.35;;;6.93;;
46767;SDS011;69007;48.978;18.066;2023-08-06T02:50:29;12.70;;;8.40;;
46767;SDS011;69007;48.978;18.066;2023-08-06T02:52:55;7.65;;;6.85;;
46767;SDS011;69007;48.978;18.066;2023-08-06T02:55:20;8.00;;;6.75;;
46767;SDS011;69007;48.978;18.066;2023-08-06T02:57:45;7.07;;;6.00;;
46767;SDS011;69007;48.978;18.066;2023-08-06T03:00:11;8.10;;;7.15;;
46767;SDS011;69007;48.978;18.066;2023-08-06T03:02:36;7.53;;;5.88;;
46767;SDS011;69007;48.978;18.066;2023-08-06T03:05:02;8.60;;;6.72;;
46767;SDS011;69007;48.978;18.066;2023-08-06T03:07:28;9.48;;;6.57;;
46767;SDS011;69007;48.978;18.066;2023-08-06T03:09:54;9.70;;;6.85;;
46767;SDS011;69007;48.978;18.066;2023-08-06T03:12:19;8.50;;;6.50;;
46767;SDS011;69007;48.978;18.066;2023-08-06T03:14:45;9.55;;;6.45;;
46767;SDS011;69007;48.978;18.066;2023-08-06T03:17:10;8.75;;;7.50;;
46767;SDS011;69007;48.978;18.066;2023-08-06T03:19:36;9.50;;;6.70;;
46767;SDS011;69007;48.978;18.066;2023-08-06T03:22:01;5.68;;;5.18;;
46767;SDS011;69007;48.978;18.066;2023-08-06T03:24:26;10.10;;;4.93;;
46767;SDS011;69007;48.978;18.066;2023-08-06T03:26:52;7.25;;;5.93;;
46767;SDS011;69007;48.978;18.066;2023-08-06T03:29:17;10.00;;;6.00;;
46767;SDS011;69007;48.978;18.066;2023-08-06T03:31:42;44.50;;;8.70;;
46767;SDS011;69007;48.978;18.066;2023-08-06T03:34:08;205.10;;;12.88;;
46767;SDS011;69007;48.978;18.066;2023-08-06T03:36:33;253.98;;;14.20;;
46767;SDS011;69007;48.978;18.066;2023-08-06T03:38:58;76.13;;;8.70;;
46767;SDS011;69007;48.978;18.066;2023-08-06T03:41:24;73.80;;;7.55;;
46767;SDS011;69007;48.978;18.066;2023-08-06T03:43:49;19.38;;;6.03;;
46767;SDS011;69007;48.978;18.066;2023-08-06T03:46:15;35.90;;;5.90;;
46767;SDS011;69007;48.978;18.066;2023-08-06T03:48:40;5.47;;;4.70;;
46767;SDS011;69007;48.978;18.066;2023-08-06T03:51:05;4.93;;;4.40;;
46767;SDS011;69007;48.978;18.066;2023-08-06T03:53:31;5.47;;;4.20;;
46767;SDS011;69007;48.978;18.066;2023-08-06T03:55:56;4.20;;;3.80;;
46767;SDS011;69007;48.978;18.066;2023-08-06T03:58:24;4.03;;;3.63;;
46767;SDS011;69007;48.978;18.066;2023-08-06T04:00:57;4.05;;;3.70;;
46767;SDS011;69007;48.978;18.066;2023-08-06T04:03:26;6.38;;;3.88;;
46767;SDS011;69007;48.978;18.066;2023-08-06T04:05:52;4.38;;;3.80;;
46767;SDS011;69007;48.978;18.066;2023-08-06T04:08:17;4.55;;;3.42;;
46767;SDS011;69007;48.978;18.066;2023-08-06T04:10:43;6.57;;;3.40;;
46767;SDS011;69007;48.978;18.066;2023-08-06T04:13:08;7.22;;;3.90;;
46767;SDS011;69007;48.978;18.066;2023-08-06T04:15:33;3.25;;;2.72;;
46767;SDS011;69007;48.978;18.066;2023-08-06T04:17:59;3.00;;;2.70;;
46767;SDS011;69007;48.978;18.066;2023-08-06T04:20:24;2.80;;;2.58;;
46767;SDS011;69007;48.978;18.066;2023-08-06T04:22:50;2.90;;;2.70;;
46767;SDS011;69007;48.978;18.066;2023-08-06T04:25:15;2.40;;;2.20;;
46767;SDS011;69007;48.978;18.066;2023-08-06T04:27:46;2.50;;;2.30;;
46767;SDS011;69007;48.978;18.066;2023-08-06T04:30:14;17.08;;;3.38;;
46767;SDS011;69007;48.978;18.066;2023-08-06T04:32:40;2.10;;;2.00;;
46767;SDS011;69007;48.978;18.066;2023-08-06T04:35:06;6.13;;;3.22;;
46767;SDS011;69007;48.978;18.066;2023-08-06T04:37:32;2.95;;;1.90;;
46767;SDS011;69007;48.978;18.066;2023-08-06T04:39:57;1.15;;;1.05;;
46767;SDS011;69007;48.978;18.066;2023-08-06T04:42:23;0.50;;;0.50;;
46767;SDS011;69007;48.978;18.066;2023-08-06T04:44:48;0.50;;;0.30;;
46767;SDS011;69007;48.978;18.066;2023-08-06T04:47:14;2.30;;;0.28;;
46767;SDS011;69007;48.978;18.066;2023-08-06T04:49:39;0.20;;;0.20;;
46767;SDS011;69007;48.978;18.066;2023-08-06T04:52:04;0.38;;;0.25;;
46767;SDS011;69007;48.978;18.066;2023-08-06T04:54:30;0.57;;;0.28;;
46767;SDS011;69007;48.978;18.066;2023-08-06T04:56:55;0.13;;;0.05;;
46767;SDS011;69007;48.978;18.066;2023-08-06T04:59:21;2.08;;;0.20;;
46767;SDS011;69007;48.978;18.066;2023-08-06T05:01:46;0.55;;;0.10;;
46767;SDS011;69007;48.978;18.066;2023-08-06T05:04:11;2.15;;;0.10;;
46767;SDS011;69007;48.978;18.066;2023-08-06T05:06:37;0.10;;;0.10;;
46767;SDS011;69007;48.978;18.066;2023-08-06T05:09:03;2.00;;;0.38;;
46767;SDS011;69007;48.978;18.066;2023-08-06T05:11:29;0.57;;;0.15;;
46767;SDS011;69007;48.978;18.066;2023-08-06T05:13:55;0.35;;;0.17;;
46767;SDS011;69007;48.978;18.066;2023-08-06T05:16:20;1.13;;;0.20;;
46767;SDS011;69007;48.978;18.066;2023-08-06T05:18:45;0.17;;;0.17;;
46767;SDS011;69007;48.978;18.066;2023-08-06T05:21:11;0.50;;;0.08;;
46767;SDS011;69007;48.978;18.066;2023-08-06T05:23:36;0.00;;;0.00;;
46767;SDS011;69007;48.978;18.066;2023-08-06T05:26:01;0.15;;;0.10;;
46767;SDS011;69007;48.978;18.066;2023-08-06T05:28:27;2.13;;;0.10;;
46767;SDS011;69007;48.978;18.066;2023-08-06T05:30:52;2.17;;;0.10;;
46767;SDS011;69007;48.978;18.066;2023-08-06T05:33:18;0.10;;;0.10;;
46767;SDS011;69007;48.978;18.066;2023-08-06T05:35:43;0.00;;;0.00;;
46767;SDS011;69007;48.978;18.066;2023-08-06T05:38:09;0.20;;;0.10;;
46767;SDS011;69007;48.978;18.066;2023-08-06T05:40:34;0.30;;;0.10;;
46767;SDS011;69007;48.978;18.066;2023-08-06T05:43:00;5.13;;;0.10;;
46767;SDS011;69007;48.978;18.066;2023-08-06T05:45:25;0.68;;;0.10;;
46767;SDS011;69007;48.978;18.066;2023-08-06T05:47:50;0.25;;;0.10;;
46767;SDS011;69007;48.978;18.066;2023-08-06T05:50:17;0.10;;;0.00;;
46767;SDS011;69007;48.978;18.066;2023-08-06T05:52:42;3.33;;;0.10;;
46767;SDS011;69007;48.978;18.066;2023-08-06T05:55:08;0.00;;;0.00;;
46767;SDS011;69007;48.978;18.066;2023-08-06T05:57:33;3.25;;;0.10;;
46767;SDS011;69007;48.978;18.066;2023-08-06T05:59:59;0.00;;;0.00;;
46767;SDS011;69007;48.978;18.066;2023-08-06T06:02:24;0.05;;;0.05;;
46767;SDS011;69007;48.978;18.066;2023-08-06T06:04:49;0.05;;;0.00;;
46767;SDS011;69007;48.978;18.066;2023-08-06T06:07:15;3.00;;;0.10;;
46767;SDS011;69007;48.978;18.066;2023-08-06T06:09:40;0.00;;;0.00;;
46767;SDS011;69007;48.978;18.066;2023-08-06T06:12:06;0.30;;;0.00;;
46767;SDS011;69007;48.978;18.066;2023-08-06T06:14:31;0.00;;;0.00;;
46767;SDS011;69007;48.978;18.066;2023-08-06T06:16:57;0.00;;;0.00;;
46767;SDS011;69007;48.978;18.066;2023-08-06T06:19:22;0.13;;;0.05;;
46767;SDS011;69007;48.978;18.066;2023-08-06T06:21:47;0.52;;;0.10;;
46767;SDS011;69007;48.978;18.066;2023-08-06T06:24:13;0.00;;;0.00;;
46767;SDS011;69007;48.978;18.066;2023-08-06T06:26:38;6.65;;;0.13;;
46767;SDS011;69007;48.978;18.066;2023-08-06T06:29:04;0.28;;;0.05;;
46767;SDS011;69007;48.978;18.066;2023-08-06T06:31:29;0.00;;;0.00;;
46767;SDS011;69007;48.978;18.066;2023-08-06T06:33:55;0.00;;;0.00;;
46767;SDS011;69007;48.978;18.066;2023-08-06T06:36:20;0.10;;;0.10;;
46767;SDS011;69007;48.978;18.066;2023-08-06T06:38:46;1.55;;;0.00;;
46767;SDS011;69007;48.978;18.066;2023-08-06T06:41:12;0.00;;;0.00;;
46767;SDS011;69007;48.978;18.066;2023-08-06T06:43:38;0.15;;;0.00;;
46767;SDS011;69007;48.978;18.066;2023-08-06T06:46:04;0.75;;;0.00;;
46767;SDS011;69007;48.978;18.066;2023-08-06T06:48:31;1.15;;;0.28;;
46767;SDS011;69007;48.978;18.066;2023-08-06T06:50:57;0.13;;;0.00;;
46767;SDS011;69007;48.978;18.066;2023-08-06T06:53:23;0.22;;;0.05;;
46767;SDS011;69007;48.978;18.066;2023-08-06T06:55:55;0.00;;;0.00;;
46767;SDS011;69007;48.978;18.066;2023-08-06T06:58:21;1.77;;;0.05;;
46767;SDS011;69007;48.978;18.066;2023-08-06T07:00:47;0.00;;;0.00;;
46767;SDS011;69007;48.978;18.066;2023-08-06T07:03:14;4.78;;;0.20;;
46767;SDS011;69007;48.978;18.066;2023-08-06T07:05:40;1.75;;;0.00;;
46767;SDS011;69007;48.978;18.066;2023-08-06T07:08:05;0.15;;;0.05;;
46767;SDS011;69007;48.978;18.066;2023-08-06T07:10:30;0.03;;;0.00;;
46767;SDS011;69007;48.978;18.066;2023-08-06T07:12:56;0.00;;;0.00;;
46767;SDS011;69007;48.978;18.066;2023-08-06T07:15:21;0.00;;;0.00;;
46767;SDS011;69007;48.978;18.066;2023-08-06T07:17:47;0.00;;;0.00;;
46767;SDS011;69007;48.978;18.066;2023-08-06T07:20:12;0.57;;;0.10;;
46767;SDS011;69007;48.978;18.066;2023-08-06T07:22:37;0.85;;;0.10;;
46767;SDS011;69007;48.978;18.066;2023-08-06T07:25:03;0.25;;;0.10;;
46767;SDS011;69007;48.978;18.066;2023-08-06T07:27:28;0.17;;;0.00;;
46767;SDS011;69007;48.978;18.066;2023-08-06T07:29:54;0.00;;;0.00;;
46767;SDS011;69007;48.978;18.066;2023-08-06T07:32:19;0.47;;;0.10;;
46767;SDS011;69007;48.978;18.066;2023-08-06T07:34:45;0.65;;;0.00;;
46767;SDS011;69007;48.978;18.066;2023-08-06T07:37:10;0.00;;;0.00;;
46767;SDS011;69007;48.978;18.066;2023-08-06T07:39:35;0.43;;;0.10;;
46767;SDS011;69007;48.978;18.066;2023-08-06T07:42:03;0.00;;;0.00;;
46767;SDS011;69007;48.978;18.066;2023-08-06T07:44:30;0.10;;;0.10;;
46767;SDS011;69007;48.978;18.066;2023-08-06T07:46:56;0.13;;;0.00;;
46767;SDS011;69007;48.978;18.066;2023-08-06T07:49:22;0.00;;;0.00;;
46767;SDS011;69007;48.978;18.066;2023-08-06T07:51:48;0.08;;;0.08;;
46767;SDS011;69007;48.978;18.066;2023-08-06T07:54:13;0.00;;;0.00;;
46767;SDS011;69007;48.978;18.066;2023-08-06T07:56:39;0.22;;;0.00;;
46767;SDS011;69007;48.978;18.066;2023-08-06T07:59:04;0.00;;;0.00;;
46767;SDS011;69007;48.978;18.066;2023-08-06T08:01:30;0.00;;;0.00;;
46767;SDS011;69007;48.978;18.066;2023-08-06T08:03:55;0.28;;;0.10;;
46767;SDS011;69007;48.978;18.066;2023-08-06T08:06:20;0.00;;;0.00;;
46767;SDS011;69007;48.978;18.066;2023-08-06T08:08:46;0.10;;;0.00;;
46767;SDS011;69007;48.978;18.066;2023-08-06T08:11:11;0.00;;;0.00;;
46767;SDS011;69007;48.978;18.066;2023-08-06T08:13:37;0.00;;;0.00;;
46767;SDS011;69007;48.978;18.066;2023-08-06T08:16:02;0.40;;;0.00;;
46767;SDS011;69007;48.978;18.066;2023-08-06T08:18:27;0.17;;;0.00;;
46767;SDS011;69007;48.978;18.066;2023-08-06T08:20:53;0.00;;;0.00;;
46767;SDS011;69007;48.978;18.066;2023-08-06T08:23:18;0.08;;;0.08;;
46767;SDS011;69007;48.978;18.066;2023-08-06T08:25:44;0.60;;;0.00;;
46767;SDS011;69007;48.978;18.066;2023-08-06T08:28:09;0.03;;;0.00;;
46767;SDS011;69007;48.978;18.066;2023-08-06T08:30:34;0.85;;;0.00;;
46767;SDS011;69007;48.978;18.066;2023-08-06T08:33:00;0.00;;;0.00;;
46767;SDS011;69007;48.978;18.066;2023-08-06T08:35:25;1.38;;;0.10;;
46767;SDS011;69007;48.978;18.066;2023-08-06T08:37:51;0.00;;;0.00;;
46767;SDS011;69007;48.978;18.066;2023-08-06T08:40:16;2.65;;;0.25;;
46767;SDS011;69007;48.978;18.066;2023-08-06T08:42:42;0.30;;;0.03;;
46767;SDS011;69007;48.978;18.066;2023-08-06T08:45:12;0.10;;;0.10;;
46767;SDS011;69007;48.978;18.066;2023-08-06T08:47:39;0.00;;;0.00;;
46767;SDS011;69007;48.978;18.066;2023-08-06T08:50:07;3.40;;;0.10;;
46767;SDS011;69007;48.978;18.066;2023-08-06T08:52:36;0.00;;;0.00;;
46767;SDS011;69007;48.978;18.066;2023-08-06T08:55:03;0.00;;;0.00;;
46767;SDS011;69007;48.978;18.066;2023-08-06T08:57:30;0.08;;;0.00;;
46767;SDS011;69007;48.978;18.066;2023-08-06T08:59:56;0.38;;;0.10;;
46767;SDS011;69007;48.978;18.066;2023-08-06T09:02:21;0.00;;;0.00;;
46767;SDS011;69007;48.978;18.066;2023-08-06T09:04:50;0.00;;;0.00;;
46767;SDS011;69007;48.978;18.066;2023-08-06T09:07:17;2.20;;;0.10;;
46767;SDS011;69007;48.978;18.066;2023-08-06T09:09:44;0.10;;;0.10;;
46767;SDS011;69007;48.978;18.066;2023-08-06T09:12:14;0.00;;;0.00;;
46767;SDS011;69007;48.978;18.066;2023-08-06T09:14:41;0.90;;;0.00;;
46767;SDS011;69007;48.978;18.066;2023-08-06T09:17:07;0.00;;;0.00;;
46767;SDS011;69007;48.978;18.066;2023-08-06T09:19:34;1.45;;;0.13;;
46767;SDS011;69007;48.978;18.066;2023-08-06T09:21:59;16.25;;;0.40;;
46767;SDS011;69007;48.978;18.066;2023-08-06T09:24:24;0.10;;;0.10;;
46767;SDS011;69007;48.978;18.066;2023-08-06T09:26:51;0.00;;;0.00;;
46767;SDS011;69007;48.978;18.066;2023-08-06T09:29:17;1.02;;;0.05;;
46767;SDS011;69007;48.978;18.066;2023-08-06T09:31:52;0.00;;;0.00;;
46767;SDS011;69007;48.978;18.066;2023-08-06T09:34:22;0.75;;;0.08;;
46767;SDS011;69007;48.978;18.066;2023-08-06T09:36:51;0.55;;;0.10;;
46767;SDS011;69007;48.978;18.066;2023-08-06T09:39:21;0.55;;;0.10;;
46767;SDS011;69007;48.978;18.066;2023-08-06T09:41:55;0.88;;;0.20;;
46767;SDS011;69007;48.978;18.066;2023-08-06T09:44:25;1.65;;;0.17;;
46767;SDS011;69007;48.978;18.066;2023-08-06T09:46:52;0.00;;;0.00;;
46767;SDS011;69007;48.978;18.066;2023-08-06T09:51:54;0.30;;;0.00;;
46767;SDS011;69007;48.978;18.066;2023-08-06T09:54:23;0.00;;;0.00;;
46767;SDS011;69007;48.978;18.066;2023-08-06T09:56:49;1.17;;;0.10;;
46767;SDS011;69007;48.978;18.066;2023-08-06T09:59:15;0.57;;;0.00;;
46767;SDS011;69007;48.978;18.066;2023-08-06T10:01:42;0.10;;;0.10;;
46767;SDS011;69007;48.978;18.066;2023-08-06T10:04:08;0.10;;;0.10;;
46767;SDS011;69007;48.978;18.066;2023-08-06T10:06:35;0.00;;;0.00;;
46767;SDS011;69007;48.978;18.066;2023-08-06T10:09:02;2.67;;;0.10;;
46767;SDS011;69007;48.978;18.066;2023-08-06T10:11:28;0.10;;;0.05;;
46767;SDS011;69007;48.978;18.066;2023-08-06T10:13:55;1.60;;;0.13;;
46767;SDS011;69007;48.978;18.066;2023-08-06T10:16:25;0.93;;;0.30;;
46767;SDS011;69007;48.978;18.066;2023-08-06T10:18:52;0.22;;;0.10;;
46767;SDS011;69007;48.978;18.066;2023-08-06T10:21:18;0.10;;;0.10;;
46767;SDS011;69007;48.978;18.066;2023-08-06T10:23:49;0.47;;;0.10;;
46767;SDS011;69007;48.978;18.066;2023-08-06T10:26:19;0.38;;;0.10;;
46767;SDS011;69007;48.978;18.066;2023-08-06T10:28:44;0.20;;;0.10;;
46767;SDS011;69007;48.978;18.066;2023-08-06T10:31:10;0.20;;;0.20;;
46767;SDS011;69007;48.978;18.066;2023-08-06T10:33:42;0.52;;;0.10;;
46767;SDS011;69007;48.978;18.066;2023-08-06T10:36:09;0.10;;;0.10;;
46767;SDS011;69007;48.978;18.066;2023-08-06T10:38:34;0.10;;;0.10;;
46767;SDS011;69007;48.978;18.066;2023-08-06T10:41:08;0.10;;;0.10;;
46767;SDS011;69007;48.978;18.066;2023-08-06T10:43:42;0.10;;;0.00;;
46767;SDS011;69007;48.978;18.066;2023-08-06T10:46:10;0.15;;;0.05;;
46767;SDS011;69007;48.978;18.066;2023-08-06T10:48:41;0.08;;;0.08;;
46767;SDS011;69007;48.978;18.066;2023-08-06T10:51:12;0.10;;;0.10;;
46767;SDS011;69007;48.978;18.066;2023-08-06T10:53:43;0.13;;;0.13;;
46767;SDS011;69007;48.978;18.066;2023-08-06T10:56:20;0.00;;;0.00;;
46767;SDS011;69007;48.978;18.066;2023-08-06T10:58:51;0.17;;;0.10;;
46767;SDS011;69007;48.978;18.066;2023-08-06T11:01:18;0.00;;;0.00;;
46767;SDS011;69007;48.978;18.066;2023-08-06T11:03:45;0.17;;;0.10;;
46767;SDS011;69007;48.978;18.066;2023-08-06T11:06:16;1.10;;;0.10;;
46767;SDS011;69007;48.978;18.066;2023-08-06T11:08:46;0.00;;;0.00;;
46767;SDS011;69007;48.978;18.066;2023-08-06T11:11:14;0.10;;;0.10;;
46767;SDS011;69007;48.978;18.066;2023-08-06T11:13:41;0.05;;;0.00;;
46767;SDS011;69007;48.978;18.066;2023-08-06T11:16:07;0.35;;;0.10;;
46767;SDS011;69007;48.978;18.066;2023-08-06T11:18:34;0.00;;;0.00;;
46767;SDS011;69007;48.978;18.066;2023-08-06T11:21:00;0.00;;;0.00;;
46767;SDS011;69007;48.978;18.066;2023-08-06T11:23:26;1.75;;;0.20;;
46767;SDS011;69007;48.978;18.066;2023-08-06T11:25:54;0.10;;;0.10;;
46767;SDS011;69007;48.978;18.066;2023-08-06T11:28:20;0.00;;;0.00;;
46767;SDS011;69007;48.978;18.066;2023-08-06T11:30:48;1.38;;;0.10;;
46767;SDS011;69007;48.978;18.066;2023-08-06T11:33:19;6.35;;;0.20;;
46767;SDS011;69007;48.978;18.066;2023-08-06T11:35:46;1.30;;;0.20;;
46767;SDS011;69007;48.978;18.066;2023-08-06T11:38:13;0.38;;;0.30;;
46767;SDS011;69007;48.978;18.066;2023-08-06T11:40:38;0.08;;;0.08;;
46767;SDS011;69007;48.978;18.066;2023-08-06T11:43:05;0.45;;;0.20;;
46767;SDS011;69007;48.978;18.066;2023-08-06T11:45:34;0.52;;;0.20;;
46767;SDS011;69007;48.978;18.066;2023-08-06T11:48:00;0.20;;;0.10;;
46767;SDS011;69007;48.978;18.066;2023-08-06T11:50:26;2.90;;;0.10;;
46767;SDS011;69007;48.978;18.066;2023-08-06T11:52:56;0.30;;;0.20;;
46767;SDS011;69007;48.978;18.066;2023-08-06T11:55:23;0.00;;;0.00;;
46767;SDS011;69007;48.978;18.066;2023-08-06T11:57:49;0.20;;;0.10;;
46767;SDS011;69007;48.978;18.066;2023-08-06T12:00:15;0.00;;;0.00;;
46767;SDS011;69007;48.978;18.066;2023-08-06T12:02:47;0.10;;;0.10;;
46767;SDS011;69007;48.978;18.066;2023-08-06T12:05:18;0.10;;;0.10;;
46767;SDS011;69007;48.978;18.066;2023-08-06T12:07:52;0.35;;;0.20;;
46767;SDS011;69007;48.978;18.066;2023-08-06T12:10:20;0.28;;;0.20;;
46767;SDS011;69007;48.978;18.066;2023-08-06T12:12:47;0.38;;;0.10;;
46767;SDS011;69007;48.978;18.066;2023-08-06T12:15:13;1.88;;;0.30;;
46767;SDS011;69007;48.978;18.066;2023-08-06T12:17:39;0.28;;;0.17;;
46767;SDS011;69007;48.978;18.066;2023-08-06T12:20:05;0.52;;;0.32;;
46767;SDS011;69007;48.978;18.066;2023-08-06T12:22:32;1.63;;;0.40;;
46767;SDS011;69007;48.978;18.066;2023-08-06T12:25:01;0.10;;;0.10;;
46767;SDS011;69007;48.978;18.066;2023-08-06T12:27:28;0.40;;;0.28;;
46767;SDS011;69007;48.978;18.066;2023-08-06T12:29:54;0.10;;;0.10;;
46767;SDS011;69007;48.978;18.066;2023-08-06T12:32:20;0.10;;;0.10;;
46767;SDS011;69007;48.978;18.066;2023-08-06T12:34:45;0.10;;;0.10;;
46767;SDS011;69007;48.978;18.066;2023-08-06T12:37:10;0.10;;;0.10;;
46767;SDS011;69007;48.978;18.066;2023-08-06T12:39:36;2.72;;;0.22;;
46767;SDS011;69007;48.978;18.066;2023-08-06T12:42:03;1.55;;;0.20;;
46767;SDS011;69007;48.978;18.066;2023-08-06T12:44:29;0.10;;;0.10;;
46767;SDS011;69007;48.978;18.066;2023-08-06T12:46:55;0.20;;;0.20;;
46767;SDS011;69007;48.978;18.066;2023-08-06T12:49:21;0.10;;;0.10;;
46767;SDS011;69007;48.978;18.066;2023-08-06T12:51:47;1.95;;;0.20;;
46767;SDS011;69007;48.978;18.066;2023-08-06T12:54:13;1.65;;;0.20;;
46767;SDS011;69007;48.978;18.066;2023-08-06T12:56:41;0.20;;;0.20;;
46767;SDS011;69007;48.978;18.066;2023-08-06T12:59:07;0.50;;;0.30;;
46767;SDS011;69007;48.978;18.066;2023-08-06T13:01:32;0.17;;;0.17;;
46767;SDS011;69007;48.978;18.066;2023-08-06T13:03:59;0.30;;;0.30;;
46767;SDS011;69007;48.978;18.066;2023-08-06T13:06:25;1.05;;;0.20;;
46767;SDS011;69007;48.978;18.066;2023-08-06T13:08:50;1.08;;;0.28;;
46767;SDS011;69007;48.978;18.066;2023-08-06T13:11:16;0.40;;;0.30;;
46767;SDS011;69007;48.978;18.066;2023-08-06T13:13:41;0.30;;;0.30;;
46767;SDS011;69007;48.978;18.066;2023-08-06T13:16:07;0.38;;;0.20;;
46767;SDS011;69007;48.978;18.066;2023-08-06T13:18:32;0.20;;;0.20;;
46767;SDS011;69007;48.978;18.066;2023-08-06T13:20:57;0.32;;;0.32;;
46767;SDS011;69007;48.978;18.066;2023-08-06T13:23:23;0.28;;;0.28;;
46767;SDS011;69007;48.978;18.066;2023-08-06T13:25:49;0.20;;;0.20;;
46767;SDS011;69007;48.978;18.066;2023-08-06T13:28:14;0.30;;;0.30;;
46767;SDS011;69007;48.978;18.066;2023-08-06T13:30:39;0.20;;;0.20;;
46767;SDS011;69007;48.978;18.066;2023-08-06T13:33:07;1.67;;;0.30;;
46767;SDS011;69007;48.978;18.066;2023-08-06T13:35:33;0.20;;;0.20;;
46767;SDS011;69007;48.978;18.066;2023-08-06T13:37:59;0.45;;;0.30;;
46767;SDS011;69007;48.978;18.066;2023-08-06T13:40:24;0.30;;;0.30;;
46767;SDS011;69007;48.978;18.066;2023-08-06T13:42:50;0.22;;;0.22;;
46767;SDS011;69007;48.978;18.066;2023-08-06T13:45:15;0.17;;;0.17;;
46767;SDS011;69007;48.978;18.066;2023-08-06T13:47:41;0.20;;;0.10;;
46767;SDS011;69007;48.978;18.066;2023-08-06T13:50:07;0.25;;;0.25;;
46767;SDS011;69007;48.978;18.066;2023-08-06T13:52:33;0.60;;;0.40;;
46767;SDS011;69007;48.978;18.066;2023-08-06T13:55:00;0.90;;;0.50;;
46767;SDS011;69007;48.978;18.066;2023-08-06T13:57:27;0.40;;;0.40;;
46767;SDS011;69007;48.978;18.066;2023-08-06T13:59:52;0.45;;;0.40;;
46767;SDS011;69007;48.978;18.066;2023-08-06T14:02:17;0.40;;;0.40;;
46767;SDS011;69007;48.978;18.066;2023-08-06T14:04:43;2.55;;;0.55;;
46767;SDS011;69007;48.978;18.066;2023-08-06T14:07:08;0.45;;;0.40;;
46767;SDS011;69007;48.978;18.066;2023-08-06T14:09:34;0.50;;;0.35;;
46767;SDS011;69007;48.978;18.066;2023-08-06T14:12:00;0.40;;;0.40;;
46767;SDS011;69007;48.978;18.066;2023-08-06T14:14:25;0.57;;;0.57;;
46767;SDS011;69007;48.978;18.066;2023-08-06T14:16:52;0.32;;;0.32;;
46767;SDS011;69007;48.978;18.066;2023-08-06T14:19:19;0.17;;;0.17;;
46767;SDS011;69007;48.978;18.066;2023-08-06T14:21:44;0.73;;;0.40;;
46767;SDS011;69007;48.978;18.066;2023-08-06T14:24:10;1.20;;;0.50;;
46767;SDS011;69007;48.978;18.066;2023-08-06T14:26:35;4.68;;;1.35;;
46767;SDS011;69007;48.978;18.066;2023-08-06T14:29:01;0.50;;;0.50;;
46767;SDS011;69007;48.978;18.066;2023-08-06T14:31:27;0.50;;;0.50;;
46767;SDS011;69007;48.978;18.066;2023-08-06T14:33:52;0.40;;;0.40;;
46767;SDS011;69007;48.978;18.066;2023-08-06T14:36:18;4.55;;;0.60;;